sensor_id;sensor_type;location;lat;lon;timestamp;temperature;humidity
18225;DHT22;9237;48.590;8.854;2022-11-20T00:01:04;2.50;99.90
18225;DHT22;9237;48.590;8.854;2022-11-20T00:03:31;2.50;99.90
18225;DHT22;9237;48.590;8.854;2022-11-20T00:06:01;2.40;99.90
18225;DHT22;9237;48.590;8.854;2022-11-20T00:08:27;2.50;99.90
18225;DHT22;9237;48.590;8.854;2022-11-20T00:10:54;2.60;99.90
18225;DHT22;9237;48.590;8.854;2022-11-20T00:13:21;2.60;99.90
18225;DHT22;9237;48.590;8.854;2022-11-20T00:15:50;2.50;99.90
18225;DHT22;9237;48.590;8.854;2022-11-20T00:18:22;2.50;99.90
18225;DHT22;9237;48.590;8.854;2022-11-20T00:20:49;2.60;99.90
18225;DHT22;9237;48.590;8.854;2022-11-20T00:23:17;2.60;99.90
18225;DHT22;9237;48.590;8.854;2022-11-20T00:25:45;2.60;99.90
18225;DHT22;9237;48.590;8.854;2022-11-20T00:28:12;2.60;99.90
18225;DHT22;9237;48.590;8.854;2022-11-20T00:30:39;2.50;99.90
18225;DHT22;9237;48.590;8.854;2022-11-20T00:33:05;2.40;99.90
18225;DHT22;9237;48.590;8.854;2022-11-20T00:35:32;2.30;99.90
18225;DHT22;9237;48.590;8.854;2022-11-20T00:37:59;2.10;99.90
18225;DHT22;9237;48.590;8.854;2022-11-20T00:40:27;2.20;99.90
18225;DHT22;9237;48.590;8.854;2022-11-20T00:42:54;1.80;99.90
18225;DHT22;9237;48.590;8.854;2022-11-20T00:45:21;1.60;99.90
18225;DHT22;9237;48.590;8.854;2022-11-20T00:47:48;1.60;99.90
18225;DHT22;9237;48.590;8.854;2022-11-20T00:50:15;1.60;99.90
18225;DHT22;9237;48.590;8.854;2022-11-20T00:52:42;1.70;99.90
18225;DHT22;9237;48.590;8.854;2022-11-20T00:55:08;1.70;99.90
18225;DHT22;9237;48.590;8.854;2022-11-20T00:57:36;1.80;99.90
18225;DHT22;9237;48.590;8.854;2022-11-20T01:00:04;1.70;99.90
18225;DHT22;9237;48.590;8.854;2022-11-20T01:02:31;1.70;99.90
18225;DHT22;9237;48.590;8.854;2022-11-20T01:04:58;1.80;99.90
18225;DHT22;9237;48.590;8.854;2022-11-20T01:07:25;1.90;99.90
18225;DHT22;9237;48.590;8.854;2022-11-20T01:09:52;1.90;99.90
18225;DHT22;9237;48.590;8.854;2022-11-20T01:12:19;1.80;99.90
18225;DHT22;9237;48.590;8.854;2022-11-20T01:14:47;1.80;99.90
18225;DHT22;9237;48.590;8.854;2022-11-20T01:17:14;1.80;99.90
18225;DHT22;9237;48.590;8.854;2022-11-20T01:19:40;1.50;99.90
18225;DHT22;9237;48.590;8.854;2022-11-20T01:22:07;1.40;99.90
18225;DHT22;9237;48.590;8.854;2022-11-20T01:24:34;1.20;99.90
18225;DHT22;9237;48.590;8.854;2022-11-20T01:27:01;1.20;99.90
18225;DHT22;9237;48.590;8.854;2022-11-20T01:29:28;1.10;99.90
18225;DHT22;9237;48.590;8.854;2022-11-20T01:31:56;1.00;99.90
18225;DHT22;9237;48.590;8.854;2022-11-20T01:34:23;0.90;99.90
18225;DHT22;9237;48.590;8.854;2022-11-20T01:36:51;0.90;99.90
18225;DHT22;9237;48.590;8.854;2022-11-20T01:39:20;1.10;99.90
18225;DHT22;9237;48.590;8.854;2022-11-20T01:41:48;1.00;99.90
18225;DHT22;9237;48.590;8.854;2022-11-20T01:44:48;1.10;99.90
18225;DHT22;9237;48.590;8.854;2022-11-20T01:47:20;0.90;99.90
18225;DHT22;9237;48.590;8.854;2022-11-20T01:49:51;0.80;99.90
18225;DHT22;9237;48.590;8.854;2022-11-20T01:52:21;0.60;99.90
18225;DHT22;9237;48.590;8.854;2022-11-20T01:54:53;0.50;99.90
18225;DHT22;9237;48.590;8.854;2022-11-20T01:57:22;0.60;99.90
18225;DHT22;9237;48.590;8.854;2022-11-20T01:59:55;0.70;99.90
18225;DHT22;9237;48.590;8.854;2022-11-20T02:02:25;0.70;99.90
18225;DHT22;9237;48.590;8.854;2022-11-20T02:04:54;0.70;99.90
18225;DHT22;9237;48.590;8.854;2022-11-20T02:07:23;0.60;99.90
18225;DHT22;9237;48.590;8.854;2022-11-20T02:09:51;0.70;99.90
18225;DHT22;9237;48.590;8.854;2022-11-20T02:12:18;0.70;99.90
18225;DHT22;9237;48.590;8.854;2022-11-20T02:14:59;0.60;99.90
18225;DHT22;9237;48.590;8.854;2022-11-20T02:17:27;0.60;99.90
18225;DHT22;9237;48.590;8.854;2022-11-20T02:19:55;0.50;99.90
18225;DHT22;9237;48.590;8.854;2022-11-20T02:22:27;0.40;99.90
18225;DHT22;9237;48.590;8.854;2022-11-20T02:24:57;0.50;99.90
18225;DHT22;9237;48.590;8.854;2022-11-20T02:27:26;0.50;99.90
18225;DHT22;9237;48.590;8.854;2022-11-20T02:29:55;0.40;99.90
18225;DHT22;9237;48.590;8.854;2022-11-20T02:32:25;0.50;99.90
18225;DHT22;9237;48.590;8.854;2022-11-20T02:34:52;0.60;99.90
18225;DHT22;9237;48.590;8.854;2022-11-20T02:37:19;0.80;99.90
18225;DHT22;9237;48.590;8.854;2022-11-20T02:39:49;0.80;99.90
18225;DHT22;9237;48.590;8.854;2022-11-20T02:42:19;0.80;99.90
18225;DHT22;9237;48.590;8.854;2022-11-20T02:44:45;0.80;99.90
18225;DHT22;9237;48.590;8.854;2022-11-20T02:47:12;0.70;99.90
18225;DHT22;9237;48.590;8.854;2022-11-20T02:49:39;0.60;99.90
18225;DHT22;9237;48.590;8.854;2022-11-20T02:52:06;0.60;99.90
18225;DHT22;9237;48.590;8.854;2022-11-20T02:54:33;0.70;99.90
18225;DHT22;9237;48.590;8.854;2022-11-20T02:57:00;0.80;99.90
18225;DHT22;9237;48.590;8.854;2022-11-20T02:59:28;0.80;99.90
18225;DHT22;9237;48.590;8.854;2022-11-20T03:01:55;0.90;99.90
18225;DHT22;9237;48.590;8.854;2022-11-20T03:04:21;0.90;99.90
18225;DHT22;9237;48.590;8.854;2022-11-20T03:06:48;0.90;99.90
18225;DHT22;9237;48.590;8.854;2022-11-20T03:09:15;0.90;99.90
18225;DHT22;9237;48.590;8.854;2022-11-20T03:11:42;0.80;99.90
18225;DHT22;9237;48.590;8.854;2022-11-20T03:14:09;0.90;99.90
18225;DHT22;9237;48.590;8.854;2022-11-20T03:16:37;1.10;99.90
18225;DHT22;9237;48.590;8.854;2022-11-20T03:19:04;1.20;99.90
18225;DHT22;9237;48.590;8.854;2022-11-20T03:21:32;1.20;99.90
18225;DHT22;9237;48.590;8.854;2022-11-20T03:24:00;1.20;99.90
18225;DHT22;9237;48.590;8.854;2022-11-20T03:26:27;1.20;99.90
18225;DHT22;9237;48.590;8.854;2022-11-20T03:28:55;1.30;99.90
18225;DHT22;9237;48.590;8.854;2022-11-20T03:31:24;1.30;99.90
18225;DHT22;9237;48.590;8.854;2022-11-20T03:33:53;1.30;99.90
18225;DHT22;9237;48.590;8.854;2022-11-20T03:36:21;1.30;99.90
18225;DHT22;9237;48.590;8.854;2022-11-20T03:38:49;1.20;99.90
18225;DHT22;9237;48.590;8.854;2022-11-20T03:41:18;1.20;99.90
18225;DHT22;9237;48.590;8.854;2022-11-20T03:43:47;1.30;99.90
18225;DHT22;9237;48.590;8.854;2022-11-20T03:46:14;1.50;99.90
18225;DHT22;9237;48.590;8.854;2022-11-20T03:48:41;1.60;99.90
18225;DHT22;9237;48.590;8.854;2022-11-20T03:51:12;1.70;99.90
18225;DHT22;9237;48.590;8.854;2022-11-20T03:53:39;1.70;99.90
18225;DHT22;9237;48.590;8.854;2022-11-20T03:56:07;1.70;99.90
18225;DHT22;9237;48.590;8.854;2022-11-20T03:58:34;1.70;99.90
18225;DHT22;9237;48.590;8.854;2022-11-20T04:01:06;1.70;99.90
18225;DHT22;9237;48.590;8.854;2022-11-20T04:03:34;1.70;99.90
18225;DHT22;9237;48.590;8.854;2022-11-20T04:06:05;1.70;99.90
18225;DHT22;9237;48.590;8.854;2022-11-20T04:08:34;1.70;99.90
18225;DHT22;9237;48.590;8.854;2022-11-20T04:11:11;1.70;99.90
18225;DHT22;9237;48.590;8.854;2022-11-20T04:13:39;1.70;99.90
18225;DHT22;9237;48.590;8.854;2022-11-20T04:16:07;1.70;99.90
18225;DHT22;9237;48.590;8.854;2022-11-20T04:18:34;1.80;99.90
18225;DHT22;9237;48.590;8.854;2022-11-20T04:21:01;1.80;99.90
18225;DHT22;9237;48.590;8.854;2022-11-20T04:23:29;1.90;99.90
18225;DHT22;9237;48.590;8.854;2022-11-20T04:26:02;2.00;99.90
18225;DHT22;9237;48.590;8.854;2022-11-20T04:28:29;2.00;99.90
18225;DHT22;9237;48.590;8.854;2022-11-20T04:31:02;2.00;99.90
18225;DHT22;9237;48.590;8.854;2022-11-20T04:33:29;2.00;99.90
18225;DHT22;9237;48.590;8.854;2022-11-20T04:36:00;2.10;99.90
18225;DHT22;9237;48.590;8.854;2022-11-20T04:38:27;2.10;99.90
18225;DHT22;9237;48.590;8.854;2022-11-20T04:40:57;2.10;99.90
18225;DHT22;9237;48.590;8.854;2022-11-20T04:43:25;2.20;99.90
18225;DHT22;9237;48.590;8.854;2022-11-20T04:45:53;2.20;99.90
18225;DHT22;9237;48.590;8.854;2022-11-20T04:48:20;2.20;99.90
18225;DHT22;9237;48.590;8.854;2022-11-20T04:50:47;2.30;99.90
18225;DHT22;9237;48.590;8.854;2022-11-20T04:53:14;2.30;99.90
18225;DHT22;9237;48.590;8.854;2022-11-20T04:55:41;2.30;99.90
18225;DHT22;9237;48.590;8.854;2022-11-20T04:58:08;2.40;99.90
18225;DHT22;9237;48.590;8.854;2022-11-20T05:00:36;2.40;99.90
18225;DHT22;9237;48.590;8.854;2022-11-20T05:03:03;2.40;99.90
18225;DHT22;9237;48.590;8.854;2022-11-20T05:05:30;2.40;99.90
18225;DHT22;9237;48.590;8.854;2022-11-20T05:07:58;2.50;99.90
18225;DHT22;9237;48.590;8.854;2022-11-20T05:10:25;2.90;99.90
18225;DHT22;9237;48.590;8.854;2022-11-20T05:12:52;2.50;99.90
18225;DHT22;9237;48.590;8.854;2022-11-20T05:15:19;2.60;99.90
18225;DHT22;9237;48.590;8.854;2022-11-20T05:17:51;3.20;99.90
18225;DHT22;9237;48.590;8.854;2022-11-20T05:20:19;2.80;99.90
18225;DHT22;9237;48.590;8.854;2022-11-20T05:22:46;2.80;99.90
18225;DHT22;9237;48.590;8.854;2022-11-20T05:25:13;2.80;99.90
18225;DHT22;9237;48.590;8.854;2022-11-20T05:27:40;2.80;99.90
18225;DHT22;9237;48.590;8.854;2022-11-20T05:30:08;2.70;99.90
18225;DHT22;9237;48.590;8.854;2022-11-20T05:32:35;2.70;99.90
18225;DHT22;9237;48.590;8.854;2022-11-20T05:35:04;2.70;99.90
18225;DHT22;9237;48.590;8.854;2022-11-20T05:37:31;2.80;99.90
18225;DHT22;9237;48.590;8.854;2022-11-20T05:39:58;2.80;99.90
18225;DHT22;9237;48.590;8.854;2022-11-20T05:42:25;2.80;99.90
18225;DHT22;9237;48.590;8.854;2022-11-20T05:44:57;3.10;99.90
18225;DHT22;9237;48.590;8.854;2022-11-20T05:47:24;2.80;99.90
18225;DHT22;9237;48.590;8.854;2022-11-20T05:49:51;2.80;99.90
18225;DHT22;9237;48.590;8.854;2022-11-20T05:52:20;2.80;99.90
18225;DHT22;9237;48.590;8.854;2022-11-20T05:54:47;2.80;99.90
18225;DHT22;9237;48.590;8.854;2022-11-20T05:57:14;2.90;99.90
18225;DHT22;9237;48.590;8.854;2022-11-20T05:59:41;2.90;99.90
18225;DHT22;9237;48.590;8.854;2022-11-20T06:02:07;2.90;99.90
18225;DHT22;9237;48.590;8.854;2022-11-20T06:04:34;2.90;99.90
18225;DHT22;9237;48.590;8.854;2022-11-20T06:07:01;2.90;99.90
18225;DHT22;9237;48.590;8.854;2022-11-20T06:09:30;2.90;99.90
18225;DHT22;9237;48.590;8.854;2022-11-20T06:11:56;2.90;99.90
18225;DHT22;9237;48.590;8.854;2022-11-20T06:14:23;3.00;99.90
18225;DHT22;9237;48.590;8.854;2022-11-20T06:16:50;3.00;99.90
18225;DHT22;9237;48.590;8.854;2022-11-20T06:19:17;3.00;99.90
18225;DHT22;9237;48.590;8.854;2022-11-20T06:21:44;3.10;99.90
18225;DHT22;9237;48.590;8.854;2022-11-20T06:24:11;3.10;99.90
18225;DHT22;9237;48.590;8.854;2022-11-20T06:26:39;3.20;99.90
18225;DHT22;9237;48.590;8.854;2022-11-20T06:29:06;3.20;99.90
18225;DHT22;9237;48.590;8.854;2022-11-20T06:31:33;3.20;99.90
18225;DHT22;9237;48.590;8.854;2022-11-20T06:34:03;3.20;99.90
18225;DHT22;9237;48.590;8.854;2022-11-20T06:36:30;3.20;99.90
18225;DHT22;9237;48.590;8.854;2022-11-20T06:38:56;3.20;99.90
18225;DHT22;9237;48.590;8.854;2022-11-20T06:41:23;3.20;99.90
18225;DHT22;9237;48.590;8.854;2022-11-20T06:43:52;3.20;99.90
18225;DHT22;9237;48.590;8.854;2022-11-20T06:46:19;3.20;99.90
18225;DHT22;9237;48.590;8.854;2022-11-20T06:48:47;3.10;99.90
18225;DHT22;9237;48.590;8.854;2022-11-20T06:51:14;3.20;99.90
18225;DHT22;9237;48.590;8.854;2022-11-20T06:53:41;3.20;99.90
18225;DHT22;9237;48.590;8.854;2022-11-20T06:56:08;3.20;99.90
18225;DHT22;9237;48.590;8.854;2022-11-20T06:58:36;3.20;99.90
18225;DHT22;9237;48.590;8.854;2022-11-20T07:01:06;3.20;99.90
18225;DHT22;9237;48.590;8.854;2022-11-20T07:03:33;3.30;99.90
18225;DHT22;9237;48.590;8.854;2022-11-20T07:06:01;3.30;99.90
18225;DHT22;9237;48.590;8.854;2022-11-20T07:08:28;3.40;99.90
18225;DHT22;9237;48.590;8.854;2022-11-20T07:10:57;3.50;99.90
18225;DHT22;9237;48.590;8.854;2022-11-20T07:13:25;3.60;99.90
18225;DHT22;9237;48.590;8.854;2022-11-20T07:15:52;3.60;99.90
18225;DHT22;9237;48.590;8.854;2022-11-20T07:18:20;3.60;99.90
18225;DHT22;9237;48.590;8.854;2022-11-20T07:20:47;3.60;99.90
18225;DHT22;9237;48.590;8.854;2022-11-20T07:23:14;3.70;99.90
18225;DHT22;9237;48.590;8.854;2022-11-20T07:25:40;3.70;99.90
18225;DHT22;9237;48.590;8.854;2022-11-20T07:28:07;3.80;99.90
18225;DHT22;9237;48.590;8.854;2022-11-20T07:30:36;3.80;99.90
18225;DHT22;9237;48.590;8.854;2022-11-20T07:33:03;3.90;99.90
18225;DHT22;9237;48.590;8.854;2022-11-20T07:35:31;3.90;99.90
18225;DHT22;9237;48.590;8.854;2022-11-20T07:37:58;3.90;99.90
18225;DHT22;9237;48.590;8.854;2022-11-20T07:40:25;4.10;99.90
18225;DHT22;9237;48.590;8.854;2022-11-20T07:42:53;4.10;99.90
18225;DHT22;9237;48.590;8.854;2022-11-20T07:45:21;4.40;99.90
18225;DHT22;9237;48.590;8.854;2022-11-20T07:47:48;4.60;99.90
18225;DHT22;9237;48.590;8.854;2022-11-20T07:50:16;4.70;99.90
18225;DHT22;9237;48.590;8.854;2022-11-20T07:52:44;4.70;99.90
18225;DHT22;9237;48.590;8.854;2022-11-20T07:55:11;4.80;99.90
18225;DHT22;9237;48.590;8.854;2022-11-20T07:57:38;4.80;99.90
18225;DHT22;9237;48.590;8.854;2022-11-20T08:00:07;4.80;99.90
18225;DHT22;9237;48.590;8.854;2022-11-20T08:02:37;4.90;99.90
18225;DHT22;9237;48.590;8.854;2022-11-20T08:05:05;5.00;99.90
18225;DHT22;9237;48.590;8.854;2022-11-20T08:07:35;5.00;99.90
18225;DHT22;9237;48.590;8.854;2022-11-20T08:10:04;5.00;99.90
18225;DHT22;9237;48.590;8.854;2022-11-20T08:12:31;5.00;99.90
18225;DHT22;9237;48.590;8.854;2022-11-20T08:15:15;5.00;99.90
18225;DHT22;9237;48.590;8.854;2022-11-20T08:17:42;5.00;99.90
18225;DHT22;9237;48.590;8.854;2022-11-20T08:20:10;5.10;99.90
18225;DHT22;9237;48.590;8.854;2022-11-20T08:22:37;5.10;99.90
18225;DHT22;9237;48.590;8.854;2022-11-20T08:25:05;5.20;99.90
18225;DHT22;9237;48.590;8.854;2022-11-20T08:27:32;5.30;99.90
18225;DHT22;9237;48.590;8.854;2022-11-20T08:29:59;5.30;99.90
18225;DHT22;9237;48.590;8.854;2022-11-20T08:32:26;5.40;99.90
18225;DHT22;9237;48.590;8.854;2022-11-20T08:34:53;5.40;99.90
18225;DHT22;9237;48.590;8.854;2022-11-20T08:37:20;5.40;99.90
18225;DHT22;9237;48.590;8.854;2022-11-20T08:39:47;5.50;99.90
18225;DHT22;9237;48.590;8.854;2022-11-20T08:42:15;5.60;99.90
18225;DHT22;9237;48.590;8.854;2022-11-20T08:44:42;5.70;99.90
18225;DHT22;9237;48.590;8.854;2022-11-20T08:47:09;5.80;99.90
18225;DHT22;9237;48.590;8.854;2022-11-20T08:49:35;5.90;99.90
18225;DHT22;9237;48.590;8.854;2022-11-20T08:52:02;5.80;99.90
18225;DHT22;9237;48.590;8.854;2022-11-20T08:54:29;5.80;99.90
18225;DHT22;9237;48.590;8.854;2022-11-20T08:56:56;5.80;99.90
18225;DHT22;9237;48.590;8.854;2022-11-20T08:59:24;5.90;99.90
18225;DHT22;9237;48.590;8.854;2022-11-20T09:01:51;5.90;99.90
18225;DHT22;9237;48.590;8.854;2022-11-20T09:04:18;5.90;99.90
18225;DHT22;9237;48.590;8.854;2022-11-20T09:06:45;5.90;99.90
18225;DHT22;9237;48.590;8.854;2022-11-20T09:09:16;5.90;99.90
18225;DHT22;9237;48.590;8.854;2022-11-20T09:11:43;5.90;99.90
18225;DHT22;9237;48.590;8.854;2022-11-20T09:14:10;5.90;99.90
18225;DHT22;9237;48.590;8.854;2022-11-20T09:16:38;5.90;99.90
18225;DHT22;9237;48.590;8.854;2022-11-20T09:19:05;5.90;99.90
18225;DHT22;9237;48.590;8.854;2022-11-20T09:21:32;5.90;99.90
18225;DHT22;9237;48.590;8.854;2022-11-20T09:23:58;6.00;99.90
18225;DHT22;9237;48.590;8.854;2022-11-20T09:26:25;6.00;99.90
18225;DHT22;9237;48.590;8.854;2022-11-20T09:28:52;5.90;99.90
18225;DHT22;9237;48.590;8.854;2022-11-20T09:31:22;5.90;99.90
18225;DHT22;9237;48.590;8.854;2022-11-20T09:33:51;5.80;99.90
18225;DHT22;9237;48.590;8.854;2022-11-20T09:36:18;5.90;99.90
18225;DHT22;9237;48.590;8.854;2022-11-20T09:38:45;5.90;99.90
18225;DHT22;9237;48.590;8.854;2022-11-20T09:41:30;5.90;99.90
18225;DHT22;9237;48.590;8.854;2022-11-20T09:44:04;5.90;99.90
18225;DHT22;9237;48.590;8.854;2022-11-20T09:46:42;5.90;99.90
18225;DHT22;9237;48.590;8.854;2022-11-20T09:49:24;5.90;99.90
18225;DHT22;9237;48.590;8.854;2022-11-20T09:51:57;6.00;99.90
18225;DHT22;9237;48.590;8.854;2022-11-20T09:54:29;6.10;99.90
18225;DHT22;9237;48.590;8.854;2022-11-20T09:57:00;6.20;99.90
18225;DHT22;9237;48.590;8.854;2022-11-20T09:59:36;6.20;99.90
18225;DHT22;9237;48.590;8.854;2022-11-20T10:02:17;6.40;99.90
18225;DHT22;9237;48.590;8.854;2022-11-20T10:04:53;6.20;99.90
18225;DHT22;9237;48.590;8.854;2022-11-20T10:07:24;6.30;99.90
18225;DHT22;9237;48.590;8.854;2022-11-20T10:09:55;6.40;99.90
18225;DHT22;9237;48.590;8.854;2022-11-20T10:12:28;6.40;99.90
18225;DHT22;9237;48.590;8.854;2022-11-20T10:15:06;6.60;99.90
18225;DHT22;9237;48.590;8.854;2022-11-20T10:17:57;6.60;99.90
18225;DHT22;9237;48.590;8.854;2022-11-20T10:20:38;6.60;99.90
18225;DHT22;9237;48.590;8.854;2022-11-20T10:23:21;6.60;99.90
18225;DHT22;9237;48.590;8.854;2022-11-20T10:25:56;6.60;99.90
18225;DHT22;9237;48.590;8.854;2022-11-20T10:28:42;6.60;99.90
18225;DHT22;9237;48.590;8.854;2022-11-20T10:31:28;6.60;99.90
18225;DHT22;9237;48.590;8.854;2022-11-20T10:33:57;6.80;99.90
18225;DHT22;9237;48.590;8.854;2022-11-20T10:36:30;6.70;99.90
18225;DHT22;9237;48.590;8.854;2022-11-20T10:39:04;6.80;99.90
18225;DHT22;9237;48.590;8.854;2022-11-20T10:41:38;7.10;99.90
18225;DHT22;9237;48.590;8.854;2022-11-20T10:44:14;7.20;99.90
18225;DHT22;9237;48.590;8.854;2022-11-20T10:47:01;7.50;99.90
18225;DHT22;9237;48.590;8.854;2022-11-20T10:49:30;7.90;99.90
18225;DHT22;9237;48.590;8.854;2022-11-20T10:52:06;8.20;99.90
18225;DHT22;9237;48.590;8.854;2022-11-20T10:54:40;8.10;99.90
18225;DHT22;9237;48.590;8.854;2022-11-20T10:57:17;8.10;99.90
18225;DHT22;9237;48.590;8.854;2022-11-20T11:00:00;8.00;99.90
18225;DHT22;9237;48.590;8.854;2022-11-20T11:02:33;8.10;99.90
18225;DHT22;9237;48.590;8.854;2022-11-20T11:05:08;8.20;99.90
18225;DHT22;9237;48.590;8.854;2022-11-20T11:07:39;8.20;99.90
18225;DHT22;9237;48.590;8.854;2022-11-20T11:10:15;8.20;99.90
18225;DHT22;9237;48.590;8.854;2022-11-20T11:12:45;8.20;99.90
18225;DHT22;9237;48.590;8.854;2022-11-20T11:15:15;8.20;99.90
18225;DHT22;9237;48.590;8.854;2022-11-20T11:17:50;8.20;99.90
18225;DHT22;9237;48.590;8.854;2022-11-20T11:20:19;8.30;99.90
18225;DHT22;9237;48.590;8.854;2022-11-20T11:22:49;8.40;99.90
18225;DHT22;9237;48.590;8.854;2022-11-20T11:25:23;8.20;99.90
18225;DHT22;9237;48.590;8.854;2022-11-20T11:27:51;8.30;99.90
18225;DHT22;9237;48.590;8.854;2022-11-20T11:30:20;8.30;99.90
18225;DHT22;9237;48.590;8.854;2022-11-20T11:32:47;8.40;99.90
18225;DHT22;9237;48.590;8.854;2022-11-20T11:35:25;8.10;99.90
18225;DHT22;9237;48.590;8.854;2022-11-20T11:38:03;7.90;99.90
18225;DHT22;9237;48.590;8.854;2022-11-20T11:40:32;8.10;99.90
18225;DHT22;9237;48.590;8.854;2022-11-20T11:43:02;8.30;99.90
18225;DHT22;9237;48.590;8.854;2022-11-20T11:45:31;8.40;99.90
18225;DHT22;9237;48.590;8.854;2022-11-20T11:47:58;8.60;99.90
18225;DHT22;9237;48.590;8.854;2022-11-20T11:50:27;8.80;99.90
18225;DHT22;9237;48.590;8.854;2022-11-20T11:53:05;8.90;99.90
18225;DHT22;9237;48.590;8.854;2022-11-20T11:55:37;9.10;99.90
18225;DHT22;9237;48.590;8.854;2022-11-20T11:58:28;8.90;99.90
18225;DHT22;9237;48.590;8.854;2022-11-20T12:01:00;8.60;99.90
18225;DHT22;9237;48.590;8.854;2022-11-20T12:03:34;8.70;99.90
18225;DHT22;9237;48.590;8.854;2022-11-20T12:06:06;8.60;99.90
18225;DHT22;9237;48.590;8.854;2022-11-20T12:08:44;8.30;99.90
18225;DHT22;9237;48.590;8.854;2022-11-20T12:11:18;8.00;99.90
18225;DHT22;9237;48.590;8.854;2022-11-20T12:13:52;7.70;99.90
18225;DHT22;9237;48.590;8.854;2022-11-20T12:16:20;7.50;99.90
18225;DHT22;9237;48.590;8.854;2022-11-20T12:18:49;7.50;99.90
18225;DHT22;9237;48.590;8.854;2022-11-20T12:21:26;7.60;99.90
18225;DHT22;9237;48.590;8.854;2022-11-20T12:24:06;7.50;99.90
18225;DHT22;9237;48.590;8.854;2022-11-20T12:26:49;7.40;99.90
18225;DHT22;9237;48.590;8.854;2022-11-20T12:29:27;7.30;99.90
18225;DHT22;9237;48.590;8.854;2022-11-20T12:32:11;7.40;99.90
18225;DHT22;9237;48.590;8.854;2022-11-20T12:34:54;7.60;99.90
18225;DHT22;9237;48.590;8.854;2022-11-20T12:37:33;7.70;99.90
18225;DHT22;9237;48.590;8.854;2022-11-20T12:40:16;7.80;99.90
18225;DHT22;9237;48.590;8.854;2022-11-20T12:42:55;8.00;99.90
18225;DHT22;9237;48.590;8.854;2022-11-20T12:46:08;8.00;99.90
18225;DHT22;9237;48.590;8.854;2022-11-20T12:49:01;8.10;99.90
18225;DHT22;9237;48.590;8.854;2022-11-20T12:51:40;8.30;99.90
18225;DHT22;9237;48.590;8.854;2022-11-20T12:54:28;8.20;99.90
18225;DHT22;9237;48.590;8.854;2022-11-20T12:57:04;8.30;99.90
18225;DHT22;9237;48.590;8.854;2022-11-20T12:59:46;8.30;99.90
18225;DHT22;9237;48.590;8.854;2022-11-20T13:02:23;8.40;99.90
18225;DHT22;9237;48.590;8.854;2022-11-20T13:05:19;8.40;99.90
18225;DHT22;9237;48.590;8.854;2022-11-20T13:07:50;8.40;99.90
18225;DHT22;9237;48.590;8.854;2022-11-20T13:10:23;8.40;99.90
18225;DHT22;9237;48.590;8.854;2022-11-20T13:12:58;8.50;99.90
18225;DHT22;9237;48.590;8.854;2022-11-20T13:15:36;8.50;99.90
18225;DHT22;9237;48.590;8.854;2022-11-20T13:18:09;8.70;99.90
18225;DHT22;9237;48.590;8.854;2022-11-20T13:20:41;8.50;99.90
18225;DHT22;9237;48.590;8.854;2022-11-20T13:23:09;8.40;99.90
18225;DHT22;9237;48.590;8.854;2022-11-20T13:25:37;8.20;99.90
18225;DHT22;9237;48.590;8.854;2022-11-20T13:28:27;8.10;99.90
18225;DHT22;9237;48.590;8.854;2022-11-20T13:30:57;7.90;99.90
18225;DHT22;9237;48.590;8.854;2022-11-20T13:33:28;7.90;99.90
18225;DHT22;9237;48.590;8.854;2022-11-20T13:35:57;7.90;99.90
18225;DHT22;9237;48.590;8.854;2022-11-20T13:38:24;8.00;99.90
18225;DHT22;9237;48.590;8.854;2022-11-20T13:40:53;8.00;99.90
18225;DHT22;9237;48.590;8.854;2022-11-20T13:43:26;8.20;99.90
18225;DHT22;9237;48.590;8.854;2022-11-20T13:45:58;8.20;99.90
18225;DHT22;9237;48.590;8.854;2022-11-20T13:48:28;8.10;99.90
18225;DHT22;9237;48.590;8.854;2022-11-20T13:51:23;7.90;99.90
18225;DHT22;9237;48.590;8.854;2022-11-20T13:57:07;7.60;99.90
18225;DHT22;9237;48.590;8.854;2022-11-20T13:59:44;7.50;99.90
18225;DHT22;9237;48.590;8.854;2022-11-20T14:02:15;7.60;99.90
18225;DHT22;9237;48.590;8.854;2022-11-20T14:04:46;7.50;99.90
18225;DHT22;9237;48.590;8.854;2022-11-20T14:07:14;7.50;99.90
18225;DHT22;9237;48.590;8.854;2022-11-20T14:09:50;7.40;99.90
18225;DHT22;9237;48.590;8.854;2022-11-20T14:12:19;7.30;99.90
18225;DHT22;9237;48.590;8.854;2022-11-20T14:14:49;7.20;99.90
18225;DHT22;9237;48.590;8.854;2022-11-20T14:17:20;7.10;99.90
18225;DHT22;9237;48.590;8.854;2022-11-20T14:19:49;7.00;99.90
18225;DHT22;9237;48.590;8.854;2022-11-20T14:22:19;6.90;99.90
18225;DHT22;9237;48.590;8.854;2022-11-20T14:24:47;6.70;99.90
18225;DHT22;9237;48.590;8.854;2022-11-20T14:27:15;6.60;99.90
18225;DHT22;9237;48.590;8.854;2022-11-20T14:29:44;6.60;99.90
18225;DHT22;9237;48.590;8.854;2022-11-20T14:32:11;6.60;99.90
18225;DHT22;9237;48.590;8.854;2022-11-20T14:34:44;6.60;99.90
18225;DHT22;9237;48.590;8.854;2022-11-20T14:37:12;6.50;99.90
18225;DHT22;9237;48.590;8.854;2022-11-20T14:39:42;6.30;99.90
18225;DHT22;9237;48.590;8.854;2022-11-20T14:42:15;6.20;99.90
18225;DHT22;9237;48.590;8.854;2022-11-20T14:44:43;6.10;99.90
18225;DHT22;9237;48.590;8.854;2022-11-20T14:47:12;6.10;99.90
18225;DHT22;9237;48.590;8.854;2022-11-20T14:49:42;6.00;99.90
18225;DHT22;9237;48.590;8.854;2022-11-20T14:52:14;6.00;99.90
18225;DHT22;9237;48.590;8.854;2022-11-20T14:54:45;6.00;99.90
18225;DHT22;9237;48.590;8.854;2022-11-20T14:57:24;5.90;99.90
18225;DHT22;9237;48.590;8.854;2022-11-20T15:00:02;5.90;99.90
18225;DHT22;9237;48.590;8.854;2022-11-20T15:02:30;5.90;99.90
18225;DHT22;9237;48.590;8.854;2022-11-20T15:04:59;5.80;99.90
18225;DHT22;9237;48.590;8.854;2022-11-20T15:07:30;5.70;99.90
18225;DHT22;9237;48.590;8.854;2022-11-20T15:10:06;5.70;99.90
18225;DHT22;9237;48.590;8.854;2022-11-20T15:12:36;5.60;99.90
18225;DHT22;9237;48.590;8.854;2022-11-20T15:15:05;5.60;99.90
18225;DHT22;9237;48.590;8.854;2022-11-20T15:17:34;5.50;99.90
18225;DHT22;9237;48.590;8.854;2022-11-20T15:20:10;5.40;99.90
18225;DHT22;9237;48.590;8.854;2022-11-20T15:22:38;5.40;99.90
18225;DHT22;9237;48.590;8.854;2022-11-20T15:25:12;5.30;99.90
18225;DHT22;9237;48.590;8.854;2022-11-20T15:27:39;5.30;99.90
18225;DHT22;9237;48.590;8.854;2022-11-20T15:30:12;5.20;99.90
18225;DHT22;9237;48.590;8.854;2022-11-20T15:32:40;5.20;99.90
18225;DHT22;9237;48.590;8.854;2022-11-20T15:35:08;5.10;99.90
18225;DHT22;9237;48.590;8.854;2022-11-20T15:37:36;5.10;99.90
18225;DHT22;9237;48.590;8.854;2022-11-20T15:40:04;5.10;99.90
18225;DHT22;9237;48.590;8.854;2022-11-20T15:42:31;5.10;99.90
18225;DHT22;9237;48.590;8.854;2022-11-20T15:44:58;5.00;99.90
18225;DHT22;9237;48.590;8.854;2022-11-20T15:47:28;5.00;99.90
18225;DHT22;9237;48.590;8.854;2022-11-20T15:49:56;5.00;99.90
18225;DHT22;9237;48.590;8.854;2022-11-20T15:52:25;5.00;99.90
18225;DHT22;9237;48.590;8.854;2022-11-20T15:54:52;5.10;99.90
18225;DHT22;9237;48.590;8.854;2022-11-20T15:57:19;5.00;99.90
18225;DHT22;9237;48.590;8.854;2022-11-20T15:59:45;5.00;99.90
18225;DHT22;9237;48.590;8.854;2022-11-20T16:02:13;5.00;99.90
18225;DHT22;9237;48.590;8.854;2022-11-20T16:04:41;5.10;99.90
18225;DHT22;9237;48.590;8.854;2022-11-20T16:07:08;5.10;99.90
18225;DHT22;9237;48.590;8.854;2022-11-20T16:09:36;5.10;99.90
18225;DHT22;9237;48.590;8.854;2022-11-20T16:12:03;5.10;99.90
18225;DHT22;9237;48.590;8.854;2022-11-20T16:14:30;5.10;99.90
18225;DHT22;9237;48.590;8.854;2022-11-20T16:17:14;5.20;99.90
18225;DHT22;9237;48.590;8.854;2022-11-20T16:20:01;5.20;99.90
18225;DHT22;9237;48.590;8.854;2022-11-20T16:22:28;5.30;99.90
18225;DHT22;9237;48.590;8.854;2022-11-20T16:24:56;5.30;99.90